createdAt,value
2022-10-18T00:00:50.781Z,101581.81
2022-10-18T00:03:53.578Z,101585.38
2022-10-18T00:06:56.123Z,101582.69
2022-10-18T00:09:59.044Z,101577.28
2022-10-18T00:13:01.613Z,101569.22
2022-10-18T00:16:05.645Z,101569.22
2022-10-18T00:19:08.053Z,101563.81
2022-10-18T00:22:10.940Z,101558.44
2022-10-18T00:25:13.652Z,101562.03
2022-10-18T00:28:16.376Z,101551.25
2022-10-18T00:31:19.952Z,101546.75
2022-10-18T00:34:22.687Z,101539.56
2022-10-18T00:37:25.125Z,101548.53
2022-10-18T00:40:27.877Z,101551.25
2022-10-18T00:43:30.556Z,101545.84
2022-10-18T00:46:38.653Z,101544.94
2022-10-18T00:49:43.606Z,101537.69
2022-10-18T00:52:49.620Z,101542.16
2022-10-18T00:55:52.125Z,101546.63
2022-10-18T00:58:54.934Z,101539.31
2022-10-18T01:01:57.544Z,101536.59
2022-10-18T01:05:00.264Z,101530.22
2022-10-18T01:08:29.327Z,101538.28
2022-10-18T01:12:03.069Z,101531.91
2022-10-18T01:15:27.061Z,101538.13
2022-10-18T01:18:33.231Z,101529.16
2022-10-18T01:21:47.698Z,101522.91
2022-10-18T01:25:07.290Z,101525.63
2022-10-18T01:28:33.725Z,101531.94
2022-10-18T01:31:56.370Z,101537.31
2022-10-18T01:35:09.513Z,101542.66
2022-10-18T01:38:17.226Z,101534.53
2022-10-18T01:41:22.668Z,101530.03
2022-10-18T01:44:27.217Z,101526.41
2022-10-18T01:47:31.226Z,101524.56
2022-10-18T01:50:35.178Z,101525.41
2022-10-18T01:53:37.661Z,101526.22
2022-10-18T01:57:00.544Z,101518.13
2022-10-18T02:00:17.394Z,101518.94
2022-10-18T02:03:24.522Z,101510.84
2022-10-18T02:06:32.511Z,101504.50
2022-10-18T02:09:43.518Z,101513.50
2022-10-18T02:12:47.001Z,101508.09
2022-10-18T02:15:54.652Z,101505.44
2022-10-18T02:19:12.213Z,101505.41
2022-10-18T02:22:15.346Z,101504.50
2022-10-18T02:25:21.976Z,101502.72
2022-10-18T02:31:36.042Z,101510.81
2022-10-18T02:34:49.463Z,101510.84
2022-10-18T02:37:53.071Z,101503.63
2022-10-18T02:40:55.765Z,101508.09
2022-10-18T02:43:58.279Z,101503.63
2022-10-18T02:47:01.603Z,101508.00
2022-10-18T02:50:04.395Z,101512.41
2022-10-18T02:53:08.815Z,101505.22
2022-10-18T02:56:11.295Z,101500.72
2022-10-18T02:59:14.293Z,101506.09
2022-10-18T03:02:16.816Z,101503.34
2022-10-18T03:05:19.526Z,101500.69
2022-10-18T03:08:22.818Z,101501.56
2022-10-18T03:11:25.619Z,101494.44
2022-10-18T03:14:28.080Z,101500.69
2022-10-18T03:17:30.969Z,101501.53
2022-10-18T03:20:34.482Z,101504.09
2022-10-18T03:23:37.332Z,101502.25
2022-10-18T03:26:39.854Z,101496.69
2022-10-18T03:29:42.735Z,101500.22
2022-10-18T03:32:45.318Z,101509.09
2022-10-18T03:35:48.007Z,101503.56
2022-10-18T03:38:50.571Z,101506.25
2022-10-18T03:41:53.335Z,101505.31
2022-10-18T03:44:55.757Z,101507.09
2022-10-18T03:51:02.542Z,101507.97
2022-10-18T03:54:05.314Z,101512.50
2022-10-18T03:57:07.741Z,101508.78
2022-10-18T04:00:11.049Z,101510.47
2022-10-18T04:03:15.267Z,101509.47
2022-10-18T04:06:17.955Z,101513.91
2022-10-18T04:09:24.731Z,101516.44
2022-10-18T04:12:27.613Z,101512.75
2022-10-18T04:15:30.092Z,101514.44
2022-10-18T04:18:32.876Z,101518.75
2022-10-18T04:21:35.341Z,101526.59
2022-10-18T04:24:38.863Z,101515.75
2022-10-18T04:27:41.338Z,101517.47
2022-10-18T04:30:44.280Z,101508.63
2022-10-18T04:33:46.760Z,101515.69
2022-10-18T04:36:49.540Z,101516.53
2022-10-18T04:39:53.663Z,101518.34
2022-10-18T04:42:56.658Z,101517.34
2022-10-18T04:45:59.109Z,101518.19
2022-10-18T04:49:01.866Z,101510.06
2022-10-18T04:52:04.508Z,101509.22
2022-10-18T04:55:07.515Z,101509.19
2022-10-18T04:58:09.935Z,101505.59
2022-10-18T05:01:13.285Z,101501.13
2022-10-18T05:04:15.770Z,101513.69
2022-10-18T05:07:18.912Z,101499.56
2022-10-18T05:10:23.138Z,101491.53
2022-10-18T05:13:26.175Z,101488.88
2022-10-18T05:16:28.648Z,101487.97
2022-10-18T05:19:31.570Z,101483.50
2022-10-18T05:22:34.181Z,101483.56
2022-10-18T05:25:41.513Z,101479.09
2022-10-18T05:28:44.200Z,101480.97
2022-10-18T05:31:48.687Z,101484.56
2022-10-18T05:34:51.277Z,101483.53
2022-10-18T05:37:54.421Z,101489.09
2022-10-18T05:40:57.813Z,101497.31
2022-10-18T05:44:04.827Z,101498.31
2022-10-18T05:47:07.334Z,101502.00
2022-10-18T05:50:10.072Z,101500.34
2022-10-18T05:53:24.759Z,101505.81
2022-10-18T05:56:35.327Z,101498.72
2022-10-18T05:59:37.921Z,101489.81
2022-10-18T06:02:40.795Z,101490.81
2022-10-18T06:05:43.722Z,101495.44
2022-10-18T06:08:49.460Z,101500.91
2022-10-18T06:11:52.164Z,101502.91
2022-10-18T06:14:54.659Z,101511.19
2022-10-18T06:17:59.117Z,101520.38
2022-10-18T06:21:01.645Z,101517.91
2022-10-18T06:24:04.628Z,101510.16
2022-10-18T06:27:09.440Z,101498.28
2022-10-18T06:30:12.268Z,101499.94
2022-10-18T06:33:14.852Z,101498.31
2022-10-18T06:36:19.935Z,101487.37
2022-10-18T06:39:22.586Z,101483.41
2022-10-18T06:42:25.334Z,101477.09
2022-10-18T06:45:27.839Z,101479.19
2022-10-18T06:48:31.704Z,101492.53
2022-10-18T06:51:34.299Z,101479.16
2022-10-18T06:54:37.082Z,101489.72
2022-10-18T06:57:39.597Z,101482.22
2022-10-18T07:00:44.290Z,101481.41
2022-10-18T07:03:48.424Z,101470.25
2022-10-18T07:06:54.183Z,101472.12
2022-10-18T07:09:56.769Z,101460.72
2022-10-18T07:13:19.945Z,101479.56
2022-10-18T07:16:22.343Z,101490.91
2022-10-18T07:19:25.243Z,101481.19
2022-10-18T07:22:30.298Z,101487.81
2022-10-18T07:25:33.318Z,101485.88
2022-10-18T07:28:36.095Z,101489.62
2022-10-18T07:31:39.284Z,101491.97
2022-10-18T07:34:41.949Z,101481.84
2022-10-18T07:37:44.809Z,101481.69
2022-10-18T07:40:47.901Z,101482.59
2022-10-18T07:43:51.969Z,101479.06
2022-10-18T07:46:54.435Z,101477.78
2022-10-18T07:49:57.191Z,101483.28
2022-10-18T07:52:59.805Z,101489.22
2022-10-18T07:56:08.590Z,101481.09
2022-10-18T07:59:12.456Z,101492.00
2022-10-18T08:02:15.292Z,101483.94
2022-10-18T08:05:18.058Z,101473.03
2022-10-18T08:08:21.874Z,101468.88
2022-10-18T08:11:25.401Z,101481.97
2022-10-18T08:14:27.998Z,101463.66
2022-10-18T08:17:31.227Z,101468.28
2022-10-18T08:20:36.330Z,101474.19
2022-10-18T08:23:39.299Z,101473.66
2022-10-18T08:26:41.924Z,101459.22
2022-10-18T08:29:44.756Z,101459.94
2022-10-18T08:32:47.281Z,101454.63
2022-10-18T08:36:01.027Z,101447.97
2022-10-18T08:39:03.715Z,101440.78
2022-10-18T08:42:31.139Z,101440.22
2022-10-18T08:45:42.506Z,101439.97
2022-10-18T08:48:49.228Z,101430.16
2022-10-18T08:51:52.354Z,101430.16
2022-10-18T08:55:19.825Z,101425.09
2022-10-18T08:58:24.293Z,101420.22
2022-10-18T09:01:39.431Z,101418.09
2022-10-18T09:04:50.831Z,101411.81
2022-10-18T09:08:22.111Z,101401.72
2022-10-18T09:11:53.015Z,101407.63
2022-10-18T09:15:14.693Z,101399.34
2022-10-18T09:18:52.091Z,101397.50
2022-10-18T09:21:56.718Z,101385.41
2022-10-18T09:25:08.439Z,101382.44
2022-10-18T09:28:14.051Z,101376.69
2022-10-18T09:31:48.989Z,101381.81
2022-10-18T09:35:15.830Z,101381.47
2022-10-18T09:38:21.747Z,101370.66
2022-10-18T09:41:38.004Z,101366.19
2022-10-18T09:45:27.193Z,101363.69
2022-10-18T09:48:37.717Z,101362.56
2022-10-18T09:51:42.247Z,101360.50
2022-10-18T09:55:20.602Z,101353.44
2022-10-18T09:58:24.292Z,101355.22
2022-10-18T10:01:30.085Z,101344.94
2022-10-18T10:04:33.242Z,101346.44
2022-10-18T10:07:42.615Z,101341.81
2022-10-18T10:10:47.659Z,101343.75
2022-10-18T10:13:50.233Z,101342.72
2022-10-18T10:17:05.783Z,101335.56
2022-10-18T10:20:19.128Z,101331.00
2022-10-18T10:23:30.890Z,101316.53
2022-10-18T10:26:38.925Z,101315.50
2022-10-18T10:29:47.882Z,101315.66
2022-10-18T10:32:51.494Z,101311.91
2022-10-18T10:35:59.499Z,101309.56
2022-10-18T10:39:04.668Z,101296.53
2022-10-18T10:42:12.834Z,101313.38
2022-10-18T10:45:15.445Z,101301.69
2022-10-18T10:48:20.044Z,101303.94
2022-10-18T10:51:32.429Z,101307.22
2022-10-18T10:54:38.921Z,101302.31
2022-10-18T10:57:44.648Z,101293.22
2022-10-18T11:00:47.352Z,101291.53
2022-10-18T11:03:52.062Z,101286.34
2022-10-18T11:07:03.181Z,101286.03
2022-10-18T11:10:12.295Z,101277.94
2022-10-18T11:13:23.696Z,101272.75
2022-10-18T11:16:48.082Z,101276.41
2022-10-18T11:20:09.792Z,101263.66
2022-10-18T11:23:14.270Z,101266.44
2022-10-18T11:27:14.175Z,101276.69
2022-10-18T11:31:09.521Z,101266.06
2022-10-18T11:34:33.710Z,101257.81
2022-10-18T11:38:11.164Z,101255.25
2022-10-18T11:41:38.386Z,101252.34
2022-10-18T11:44:53.972Z,101242.53
2022-10-18T11:48:33.764Z,101245.81
2022-10-18T11:52:06.713Z,101238.91
2022-10-18T11:55:09.536Z,101235.72
2022-10-18T11:58:36.675Z,101224.41
2022-10-18T12:01:57.798Z,101230.88
2022-10-18T12:08:35.335Z,101221.16
2022-10-18T12:11:46.843Z,101218.66
2022-10-18T12:15:05.726Z,101216.63
2022-10-18T12:18:17.768Z,101201.66
2022-10-18T12:21:25.445Z,101205.25
2022-10-18T12:24:30.485Z,101198.50
2022-10-18T12:27:46.756Z,101201.12
2022-10-18T12:30:56.093Z,101189.13
2022-10-18T12:34:02.144Z,101187.50
2022-10-18T12:37:22.728Z,101195.00
2022-10-18T12:40:41.756Z,101180.16
2022-10-18T12:43:51.756Z,101175.03
2022-10-18T12:46:59.721Z,101160.75
2022-10-18T12:50:06.606Z,101152.25
2022-10-18T12:53:09.563Z,101150.47
2022-10-18T12:56:27.945Z,101149.50
2022-10-18T12:59:30.289Z,101140.31
2022-10-18T13:02:33.640Z,101145.13
2022-10-18T13:05:54.301Z,101144.22
2022-10-18T13:09:21.486Z,101142.91
2022-10-18T13:12:23.832Z,101143.94
2022-10-18T13:15:39.557Z,101144.38
2022-10-18T13:18:53.496Z,101149.91
2022-10-18T13:22:14.718Z,101141.03
2022-10-18T13:25:21.154Z,101146.31
2022-10-18T13:28:28.889Z,101133.13
2022-10-18T13:31:54.817Z,101132.00
2022-10-18T13:34:57.587Z,101134.28
2022-10-18T13:38:00.131Z,101130.81
2022-10-18T13:41:14.894Z,101132.28
2022-10-18T13:44:25.331Z,101135.72
2022-10-18T13:47:38.449Z,101122.75
2022-10-18T13:50:42.449Z,101109.13
2022-10-18T13:54:04.007Z,101108.81
2022-10-18T13:57:09.355Z,101088.94
2022-10-18T14:00:27.640Z,101106.34
2022-10-18T14:07:02.240Z,101100.66
2022-10-18T14:10:10.289Z,101097.47
2022-10-18T14:13:20.982Z,101082.56
2022-10-18T14:16:29.775Z,101080.34
2022-10-18T14:19:41.333Z,101082.88
2022-10-18T14:23:03.013Z,101077.56
2022-10-18T14:26:14.809Z,101071.88
2022-10-18T14:29:19.870Z,101063.16
2022-10-18T14:32:26.092Z,101066.31
2022-10-18T14:35:33.054Z,101065.66
2022-10-18T14:38:37.969Z,101063.25
2022-10-18T14:41:52.129Z,101064.44
2022-10-18T14:44:56.495Z,101053.56
2022-10-18T14:48:14.847Z,101061.69
2022-10-18T14:51:19.857Z,101063.87
2022-10-18T14:54:33.926Z,101060.81
2022-10-18T14:57:37.089Z,101055.47
2022-10-18T15:00:41.845Z,101052.03
2022-10-18T15:03:47.498Z,101053.87
2022-10-18T15:06:50.349Z,101050.72
2022-10-18T15:09:53.743Z,101057.31
2022-10-18T15:13:11.163Z,101052.19
2022-10-18T15:16:19.221Z,101056.03
2022-10-18T15:19:21.921Z,101058.22
2022-10-18T15:22:31.612Z,101054.09
2022-10-18T15:25:35.988Z,101057.00
2022-10-18T15:28:58.724Z,101059.97
2022-10-18T15:32:21.673Z,101053.84
2022-10-18T15:35:27.958Z,101051.22
2022-10-18T15:38:32.758Z,101047.78
2022-10-18T15:41:49.794Z,101032.88
2022-10-18T15:44:52.552Z,101051.84
2022-10-18T15:48:07.038Z,101052.09
2022-10-18T15:51:37.218Z,101049.66
2022-10-18T15:54:39.739Z,101045.62
2022-10-18T15:57:43.050Z,101049.69
2022-10-18T16:00:46.985Z,101043.72
2022-10-18T16:03:50.865Z,101028.03
2022-10-18T16:06:55.540Z,101041.72
2022-10-18T16:09:59.268Z,101049.09
2022-10-18T16:13:01.739Z,101044.75
2022-10-18T16:16:04.655Z,101054.06
2022-10-18T16:19:08.264Z,101059.75
2022-10-18T16:25:16.064Z,101053.81
2022-10-18T16:28:23.934Z,101034.41
2022-10-18T16:31:31.980Z,101041.88
2022-10-18T16:34:34.754Z,101064.53
2022-10-18T16:37:38.321Z,101056.69
2022-10-18T16:40:41.491Z,101069.56
2022-10-18T16:43:45.850Z,101074.19
2022-10-18T16:46:51.153Z,101072.62
2022-10-18T16:49:56.376Z,101071.88
2022-10-18T16:52:59.087Z,101076.53
2022-10-18T16:56:03.198Z,101050.69
2022-10-18T16:59:05.970Z,101066.84
2022-10-18T17:02:09.312Z,101072.38
2022-10-18T17:05:12.135Z,101085.09
2022-10-18T17:08:23.754Z,101084.34
2022-10-18T17:11:28.370Z,101082.72
2022-10-18T17:14:33.310Z,101083.66
2022-10-18T17:17:36.314Z,101080.09
2022-10-18T17:20:39.032Z,101092.81
2022-10-18T17:23:41.874Z,101085.66
2022-10-18T17:26:44.347Z,101078.53
2022-10-18T17:29:47.080Z,101076.81
2022-10-18T17:32:49.547Z,101075.97
2022-10-18T17:35:52.318Z,101074.25
2022-10-18T17:38:55.108Z,101084.28
2022-10-18T17:41:58.082Z,101075.34
2022-10-18T17:45:00.990Z,101076.28
2022-10-18T17:48:03.788Z,101080.81
2022-10-18T17:51:11.363Z,101074.50
2022-10-18T17:54:14.180Z,101076.28
2022-10-18T17:57:16.838Z,101073.56
2022-10-18T18:00:19.645Z,101068.97
2022-10-18T18:03:22.551Z,101058.03
2022-10-18T18:06:34.161Z,101052.56
2022-10-18T18:09:37.083Z,101049.81
2022-10-18T18:12:39.590Z,101048.78
2022-10-18T18:15:42.301Z,101047.88
2022-10-18T18:18:47.197Z,101049.63
2022-10-18T18:21:53.685Z,101041.50
2022-10-18T18:24:56.213Z,101042.38
2022-10-18T18:28:01.467Z,101045.00
2022-10-18T18:31:14.584Z,101035.97
2022-10-18T18:34:17.816Z,101031.44
2022-10-18T18:37:20.659Z,101032.38
2022-10-18T18:40:23.927Z,101030.63
2022-10-18T18:43:26.370Z,101037.78
2022-10-18T18:46:33.078Z,101035.12
2022-10-18T18:49:35.566Z,101031.59
2022-10-18T18:52:38.267Z,101026.28
2022-10-18T18:55:42.092Z,101032.66
2022-10-18T18:58:45.543Z,101042.69
2022-10-18T19:01:48.087Z,101047.34
2022-10-18T19:04:51.484Z,101049.28
2022-10-18T19:07:53.965Z,101043.03
2022-10-18T19:10:57.531Z,101045.88
2022-10-18T19:14:00.900Z,101036.87
2022-10-18T19:17:07.111Z,101039.69
2022-10-18T19:20:12.727Z,101038.94
2022-10-18T19:23:15.894Z,101053.44
2022-10-18T19:26:46.056Z,101048.09
2022-10-18T19:29:48.901Z,101049.03
2022-10-18T19:32:59.880Z,101041.00
2022-10-18T19:36:05.971Z,101044.69
2022-10-18T19:39:11.174Z,101036.59
2022-10-18T19:42:18.606Z,101038.41
2022-10-18T19:45:24.974Z,101043.91
2022-10-18T19:48:27.693Z,101046.63
2022-10-18T19:51:30.167Z,101043.00
2022-10-18T19:54:32.896Z,101043.94
2022-10-18T19:57:35.370Z,101052.09
2022-10-18T20:00:40.037Z,101038.56
2022-10-18T20:03:43.182Z,101046.63
2022-10-18T20:06:45.689Z,101043.94
2022-10-18T20:09:48.588Z,101041.22
2022-10-18T20:12:51.116Z,101032.22
2022-10-18T20:15:54.167Z,101035.88
2022-10-18T20:18:58.563Z,101034.09
2022-10-18T20:22:01.425Z,101037.69
2022-10-18T20:25:04.029Z,101038.59
2022-10-18T20:28:07.031Z,101036.81
2022-10-18T20:31:15.397Z,101031.38
2022-10-18T20:34:18.323Z,101019.72
2022-10-18T20:37:20.844Z,101025.12
2022-10-18T20:40:23.912Z,101022.44
2022-10-18T20:43:26.412Z,101015.28
2022-10-18T20:46:34.404Z,101022.53
2022-10-18T20:49:37.026Z,101013.56
2022-10-18T20:52:39.736Z,101024.38
2022-10-18T20:55:43.637Z,101024.41
2022-10-18T20:58:47.019Z,101028.97
2022-10-18T21:01:49.536Z,101019.97
2022-10-18T21:04:52.332Z,101018.16
2022-10-18T21:07:54.764Z,101022.63
2022-10-18T21:11:01.089Z,101012.75
2022-10-18T21:14:04.467Z,101012.63
2022-10-18T21:17:07.178Z,101010.75
2022-10-18T21:20:10.435Z,101016.97
2022-10-18T21:23:13.176Z,101014.28
2022-10-18T21:26:21.140Z,101022.28
2022-10-18T21:29:27.037Z,101015.22
2022-10-18T21:32:29.588Z,101019.81
2022-10-18T21:35:37.767Z,101026.16
2022-10-18T21:38:40.424Z,101034.19
2022-10-18T21:41:43.417Z,101026.94
2022-10-18T21:44:45.967Z,101030.53
2022-10-18T21:47:48.730Z,101014.25
2022-10-18T21:50:51.366Z,101023.06
2022-10-18T21:53:56.166Z,101014.88
2022-10-18T21:56:58.629Z,101028.31
2022-10-18T22:00:01.487Z,101012.03
2022-10-18T22:03:11.466Z,101012.06
2022-10-18T22:06:15.391Z,101017.38
2022-10-18T22:09:17.945Z,101017.19
2022-10-18T22:12:20.729Z,101014.25
2022-10-18T22:15:23.336Z,101013.28
2022-10-18T22:18:26.196Z,101007.94
2022-10-18T22:21:29.624Z,101013.37
2022-10-18T22:24:32.435Z,101014.31
2022-10-18T22:27:35.407Z,101011.69
2022-10-18T22:30:40.118Z,101007.16
2022-10-18T22:33:42.836Z,101007.13
2022-10-18T22:36:45.964Z,101003.56
2022-10-18T22:39:48.387Z,101010.66
2022-10-18T22:42:53.991Z,101003.34
2022-10-18T22:45:56.513Z,101010.44
2022-10-18T22:48:59.259Z,101015.66
2022-10-18T22:52:01.693Z,101010.16
2022-10-18T22:55:04.710Z,101018.25
2022-10-18T22:58:07.356Z,101020.13
2022-10-18T23:01:15.675Z,101016.56
2022-10-18T23:04:18.094Z,101025.34
2022-10-18T23:07:20.938Z,101013.78
2022-10-18T23:10:24.970Z,101023.69
2022-10-18T23:13:28.190Z,101018.28
2022-10-18T23:16:31.494Z,101023.72
2022-10-18T23:19:34.190Z,101016.59
2022-10-18T23:22:36.691Z,101018.50
2022-10-18T23:25:39.523Z,101021.38
2022-10-18T23:28:43.956Z,101026.84
2022-10-18T23:31:46.771Z,101023.28
2022-10-18T23:34:49.187Z,101016.97
2022-10-18T23:37:52.483Z,101017.00
2022-10-18T23:40:56.342Z,101017.88
2022-10-18T23:43:59.060Z,101021.44
2022-10-18T23:47:01.591Z,101020.50
2022-10-18T23:50:05.569Z,101014.97
2022-10-18T23:53:08.038Z,101020.44
2022-10-18T23:56:12.864Z,101026.78
2022-10-18T23:59:15.297Z,101027.63
